sensor_id;sensor_type;location;lat;lon;timestamp;temperature;humidity
64987;DHT22;51532;52.108;9.360;2022-08-02T00:01:14;16.10;99.90
64987;DHT22;51532;52.108;9.360;2022-08-02T00:03:59;16.20;99.90
64987;DHT22;51532;52.108;9.360;2022-08-02T00:06:45;16.10;99.90
64987;DHT22;51532;52.108;9.360;2022-08-02T00:09:30;16.10;99.90
64987;DHT22;51532;52.108;9.360;2022-08-02T00:12:16;16.00;99.90
64987;DHT22;51532;52.108;9.360;2022-08-02T00:15:03;15.90;99.90
64987;DHT22;51532;52.108;9.360;2022-08-02T00:17:49;16.00;99.90
64987;DHT22;51532;52.108;9.360;2022-08-02T00:20:34;15.90;99.90
64987;DHT22;51532;52.108;9.360;2022-08-02T00:23:20;15.80;99.90
64987;DHT22;51532;52.108;9.360;2022-08-02T00:26:05;15.80;99.90
64987;DHT22;51532;52.108;9.360;2022-08-02T00:28:50;15.70;99.90
64987;DHT22;51532;52.108;9.360;2022-08-02T00:31:36;15.70;99.90
64987;DHT22;51532;52.108;9.360;2022-08-02T00:34:21;15.60;99.90
64987;DHT22;51532;52.108;9.360;2022-08-02T00:37:15;15.60;99.90
64987;DHT22;51532;52.108;9.360;2022-08-02T00:40:01;15.60;99.90
64987;DHT22;51532;52.108;9.360;2022-08-02T00:43:05;15.60;99.90
64987;DHT22;51532;52.108;9.360;2022-08-02T00:45:52;15.60;99.90
64987;DHT22;51532;52.108;9.360;2022-08-02T00:48:48;15.60;99.90
64987;DHT22;51532;52.108;9.360;2022-08-02T00:51:34;15.50;99.90
64987;DHT22;51532;52.108;9.360;2022-08-02T00:54:19;15.50;99.90
64987;DHT22;51532;52.108;9.360;2022-08-02T00:57:04;15.50;99.90
64987;DHT22;51532;52.108;9.360;2022-08-02T00:59:50;15.40;99.90
64987;DHT22;51532;52.108;9.360;2022-08-02T01:02:35;15.30;99.90
64987;DHT22;51532;52.108;9.360;2022-08-02T01:05:21;15.10;99.90
64987;DHT22;51532;52.108;9.360;2022-08-02T01:08:06;15.00;99.90
64987;DHT22;51532;52.108;9.360;2022-08-02T01:10:52;15.00;99.90
64987;DHT22;51532;52.108;9.360;2022-08-02T01:13:37;14.90;99.90
64987;DHT22;51532;52.108;9.360;2022-08-02T01:16:27;14.90;99.90
64987;DHT22;51532;52.108;9.360;2022-08-02T01:29:06;15.00;99.90
64987;DHT22;51532;52.108;9.360;2022-08-02T01:34:53;14.90;99.90
64987;DHT22;51532;52.108;9.360;2022-08-02T01:37:46;14.80;99.90
64987;DHT22;51532;52.108;9.360;2022-08-02T01:40:36;14.80;99.90
64987;DHT22;51532;52.108;9.360;2022-08-02T01:43:25;14.80;99.90
64987;DHT22;51532;52.108;9.360;2022-08-02T01:46:13;14.80;99.90
64987;DHT22;51532;52.108;9.360;2022-08-02T01:49:03;14.90;99.90
64987;DHT22;51532;52.108;9.360;2022-08-02T01:51:53;14.90;99.90
64987;DHT22;51532;52.108;9.360;2022-08-02T01:55:06;14.90;99.90
64987;DHT22;51532;52.108;9.360;2022-08-02T01:58:04;14.90;99.90
64987;DHT22;51532;52.108;9.360;2022-08-02T02:00:52;14.80;99.90
64987;DHT22;51532;52.108;9.360;2022-08-02T02:03:40;14.80;99.90
64987;DHT22;51532;52.108;9.360;2022-08-02T02:06:27;14.70;99.90
64987;DHT22;51532;52.108;9.360;2022-08-02T02:09:14;14.60;99.90
64987;DHT22;51532;52.108;9.360;2022-08-02T02:12:00;14.60;99.90
64987;DHT22;51532;52.108;9.360;2022-08-02T02:14:59;14.60;99.90
64987;DHT22;51532;52.108;9.360;2022-08-02T02:17:48;14.60;99.90
64987;DHT22;51532;52.108;9.360;2022-08-02T02:20:55;14.80;99.90
64987;DHT22;51532;52.108;9.360;2022-08-02T02:23:41;14.70;99.90
64987;DHT22;51532;52.108;9.360;2022-08-02T02:26:29;14.80;99.90
64987;DHT22;51532;52.108;9.360;2022-08-02T02:29:18;14.80;99.90
64987;DHT22;51532;52.108;9.360;2022-08-02T02:32:05;14.80;99.90
64987;DHT22;51532;52.108;9.360;2022-08-02T02:34:51;14.70;99.90
64987;DHT22;51532;52.108;9.360;2022-08-02T02:37:37;14.70;99.90
64987;DHT22;51532;52.108;9.360;2022-08-02T02:40:25;14.70;99.90
64987;DHT22;51532;52.108;9.360;2022-08-02T02:43:11;14.70;99.90
64987;DHT22;51532;52.108;9.360;2022-08-02T02:45:58;14.70;99.90
64987;DHT22;51532;52.108;9.360;2022-08-02T02:48:44;14.70;99.90
64987;DHT22;51532;52.108;9.360;2022-08-02T02:51:29;14.70;99.90
64987;DHT22;51532;52.108;9.360;2022-08-02T02:54:15;14.70;99.90
64987;DHT22;51532;52.108;9.360;2022-08-02T02:57:18;14.80;99.90
64987;DHT22;51532;52.108;9.360;2022-08-02T03:00:09;14.70;99.90
64987;DHT22;51532;52.108;9.360;2022-08-02T03:02:55;14.70;99.90
64987;DHT22;51532;52.108;9.360;2022-08-02T03:05:40;14.70;99.90
64987;DHT22;51532;52.108;9.360;2022-08-02T03:08:26;14.60;99.90
64987;DHT22;51532;52.108;9.360;2022-08-02T03:11:12;14.60;99.90
64987;DHT22;51532;52.108;9.360;2022-08-02T03:13:59;14.60;99.90
64987;DHT22;51532;52.108;9.360;2022-08-02T03:16:48;12.90;99.90
64987;DHT22;51532;52.108;9.360;2022-08-02T03:19:33;14.60;99.90
64987;DHT22;51532;52.108;9.360;2022-08-02T03:22:19;14.60;99.90
64987;DHT22;51532;52.108;9.360;2022-08-02T03:25:06;14.60;99.90
64987;DHT22;51532;52.108;9.360;2022-08-02T03:27:51;14.60;99.90
64987;DHT22;51532;52.108;9.360;2022-08-02T03:30:37;14.60;99.90
64987;DHT22;51532;52.108;9.360;2022-08-02T03:33:24;14.60;99.90
64987;DHT22;51532;52.108;9.360;2022-08-02T03:36:12;14.60;99.90
64987;DHT22;51532;52.108;9.360;2022-08-02T03:39:00;14.70;99.90
64987;DHT22;51532;52.108;9.360;2022-08-02T03:41:47;14.60;99.90
64987;DHT22;51532;52.108;9.360;2022-08-02T03:44:34;14.60;99.90
64987;DHT22;51532;52.108;9.360;2022-08-02T03:47:22;14.60;99.90
64987;DHT22;51532;52.108;9.360;2022-08-02T03:50:10;14.60;99.90
64987;DHT22;51532;52.108;9.360;2022-08-02T03:52:58;14.60;99.90
64987;DHT22;51532;52.108;9.360;2022-08-02T03:55:44;14.60;99.90
64987;DHT22;51532;52.108;9.360;2022-08-02T03:58:30;14.60;99.90
64987;DHT22;51532;52.108;9.360;2022-08-02T04:01:15;14.50;99.90
64987;DHT22;51532;52.108;9.360;2022-08-02T04:04:01;14.50;99.90
64987;DHT22;51532;52.108;9.360;2022-08-02T04:06:46;14.50;99.90
64987;DHT22;51532;52.108;9.360;2022-08-02T04:09:32;14.50;99.90
64987;DHT22;51532;52.108;9.360;2022-08-02T04:12:17;14.50;99.90
64987;DHT22;51532;52.108;9.360;2022-08-02T04:15:06;14.50;99.90
64987;DHT22;51532;52.108;9.360;2022-08-02T04:17:55;14.60;99.90
64987;DHT22;51532;52.108;9.360;2022-08-02T04:20:42;14.60;99.90
64987;DHT22;51532;52.108;9.360;2022-08-02T04:23:29;14.60;99.90
64987;DHT22;51532;52.108;9.360;2022-08-02T04:26:15;14.60;99.90
64987;DHT22;51532;52.108;9.360;2022-08-02T04:29:02;14.60;99.90
64987;DHT22;51532;52.108;9.360;2022-08-02T04:31:49;14.70;99.90
64987;DHT22;51532;52.108;9.360;2022-08-02T04:34:35;14.60;99.90
64987;DHT22;51532;52.108;9.360;2022-08-02T04:37:21;14.60;99.90
64987;DHT22;51532;52.108;9.360;2022-08-02T04:40:11;14.70;99.90
64987;DHT22;51532;52.108;9.360;2022-08-02T04:42:56;14.60;99.90
64987;DHT22;51532;52.108;9.360;2022-08-02T04:45:43;14.70;99.90
64987;DHT22;51532;52.108;9.360;2022-08-02T04:48:29;14.70;99.90
64987;DHT22;51532;52.108;9.360;2022-08-02T04:51:14;14.70;99.90
64987;DHT22;51532;52.108;9.360;2022-08-02T04:54:00;14.70;99.90
64987;DHT22;51532;52.108;9.360;2022-08-02T04:56:54;14.60;99.90
64987;DHT22;51532;52.108;9.360;2022-08-02T04:59:39;14.60;99.90
64987;DHT22;51532;52.108;9.360;2022-08-02T05:02:25;15.20;99.90
64987;DHT22;51532;52.108;9.360;2022-08-02T05:05:10;14.60;99.90
64987;DHT22;51532;52.108;9.360;2022-08-02T05:07:56;14.50;99.90
64987;DHT22;51532;52.108;9.360;2022-08-02T05:10:41;14.40;99.90
64987;DHT22;51532;52.108;9.360;2022-08-02T05:13:27;14.50;99.90
64987;DHT22;51532;52.108;9.360;2022-08-02T05:16:12;14.50;99.90
64987;DHT22;51532;52.108;9.360;2022-08-02T05:18:59;14.50;99.90
64987;DHT22;51532;52.108;9.360;2022-08-02T05:21:45;14.50;99.90
64987;DHT22;51532;52.108;9.360;2022-08-02T05:24:30;14.50;99.90
64987;DHT22;51532;52.108;9.360;2022-08-02T05:27:16;14.60;99.90
64987;DHT22;51532;52.108;9.360;2022-08-02T05:30:08;14.60;99.90
64987;DHT22;51532;52.108;9.360;2022-08-02T05:32:53;14.60;99.90
64987;DHT22;51532;52.108;9.360;2022-08-02T05:35:39;14.70;99.90
64987;DHT22;51532;52.108;9.360;2022-08-02T05:38:24;14.70;99.90
64987;DHT22;51532;52.108;9.360;2022-08-02T05:41:11;14.70;99.90
64987;DHT22;51532;52.108;9.360;2022-08-02T05:43:56;14.80;99.90
64987;DHT22;51532;52.108;9.360;2022-08-02T05:46:42;14.80;99.90
64987;DHT22;51532;52.108;9.360;2022-08-02T05:49:27;14.80;99.90
64987;DHT22;51532;52.108;9.360;2022-08-02T05:52:14;14.80;99.90
64987;DHT22;51532;52.108;9.360;2022-08-02T05:55:06;14.90;99.90
64987;DHT22;51532;52.108;9.360;2022-08-02T06:00:41;14.90;99.90
64987;DHT22;51532;52.108;9.360;2022-08-02T06:03:35;15.00;99.90
64987;DHT22;51532;52.108;9.360;2022-08-02T06:06:24;15.20;99.90
64987;DHT22;51532;52.108;9.360;2022-08-02T06:09:15;15.30;99.90
64987;DHT22;51532;52.108;9.360;2022-08-02T06:12:11;15.30;99.90
64987;DHT22;51532;52.108;9.360;2022-08-02T06:14:58;15.40;99.90
64987;DHT22;51532;52.108;9.360;2022-08-02T06:17:44;15.50;99.90
64987;DHT22;51532;52.108;9.360;2022-08-02T06:20:32;15.50;99.90
64987;DHT22;51532;52.108;9.360;2022-08-02T06:23:20;15.50;99.90
64987;DHT22;51532;52.108;9.360;2022-08-02T06:26:08;15.60;99.90
64987;DHT22;51532;52.108;9.360;2022-08-02T06:28:57;15.70;99.90
64987;DHT22;51532;52.108;9.360;2022-08-02T06:31:42;15.70;99.90
64987;DHT22;51532;52.108;9.360;2022-08-02T06:34:29;15.80;99.90
64987;DHT22;51532;52.108;9.360;2022-08-02T06:37:50;15.80;99.90
64987;DHT22;51532;52.108;9.360;2022-08-02T06:40:56;16.70;99.90
64987;DHT22;51532;52.108;9.360;2022-08-02T06:44:01;16.00;99.90
64987;DHT22;51532;52.108;9.360;2022-08-02T06:47:07;16.20;99.90
64987;DHT22;51532;52.108;9.360;2022-08-02T06:49:56;16.30;99.90
64987;DHT22;51532;52.108;9.360;2022-08-02T06:52:42;16.30;99.90
64987;DHT22;51532;52.108;9.360;2022-08-02T06:55:28;16.40;99.90
64987;DHT22;51532;52.108;9.360;2022-08-02T06:58:20;16.50;99.90
64987;DHT22;51532;52.108;9.360;2022-08-02T07:01:05;16.60;99.90
64987;DHT22;51532;52.108;9.360;2022-08-02T07:03:51;16.70;99.90
64987;DHT22;51532;52.108;9.360;2022-08-02T07:06:37;16.80;99.90
64987;DHT22;51532;52.108;9.360;2022-08-02T07:09:23;16.90;99.90
64987;DHT22;51532;52.108;9.360;2022-08-02T07:12:08;17.00;99.90
64987;DHT22;51532;52.108;9.360;2022-08-02T07:14:55;17.10;99.90
64987;DHT22;51532;52.108;9.360;2022-08-02T07:17:40;17.10;99.90
64987;DHT22;51532;52.108;9.360;2022-08-02T07:20:26;17.30;99.90
64987;DHT22;51532;52.108;9.360;2022-08-02T07:23:12;17.60;99.90
64987;DHT22;51532;52.108;9.360;2022-08-02T07:25:58;17.80;99.90
64987;DHT22;51532;52.108;9.360;2022-08-02T07:28:48;18.00;99.90
64987;DHT22;51532;52.108;9.360;2022-08-02T07:31:33;18.20;99.90
64987;DHT22;51532;52.108;9.360;2022-08-02T07:34:19;18.40;99.90
64987;DHT22;51532;52.108;9.360;2022-08-02T07:37:04;18.50;99.90
64987;DHT22;51532;52.108;9.360;2022-08-02T07:39:54;18.60;99.90
64987;DHT22;51532;52.108;9.360;2022-08-02T07:42:40;18.60;99.90
64987;DHT22;51532;52.108;9.360;2022-08-02T07:45:26;18.80;99.90
64987;DHT22;51532;52.108;9.360;2022-08-02T07:48:12;18.90;99.90
64987;DHT22;51532;52.108;9.360;2022-08-02T07:50:57;19.20;99.90
64987;DHT22;51532;52.108;9.360;2022-08-02T07:53:43;19.40;99.90
64987;DHT22;51532;52.108;9.360;2022-08-02T07:56:46;19.50;99.90
64987;DHT22;51532;52.108;9.360;2022-08-02T07:59:35;19.70;99.90
64987;DHT22;51532;52.108;9.360;2022-08-02T08:02:20;19.70;99.90
64987;DHT22;51532;52.108;9.360;2022-08-02T08:05:06;19.70;99.90
64987;DHT22;51532;52.108;9.360;2022-08-02T08:07:52;19.90;99.90
64987;DHT22;51532;52.108;9.360;2022-08-02T08:10:39;19.90;99.90
64987;DHT22;51532;52.108;9.360;2022-08-02T08:13:25;19.80;99.90
64987;DHT22;51532;52.108;9.360;2022-08-02T08:16:10;20.20;99.90
64987;DHT22;51532;52.108;9.360;2022-08-02T08:18:55;20.50;99.90
64987;DHT22;51532;52.108;9.360;2022-08-02T08:21:41;20.60;99.90
64987;DHT22;51532;52.108;9.360;2022-08-02T08:24:27;20.90;99.90
64987;DHT22;51532;52.108;9.360;2022-08-02T08:27:13;20.90;99.90
64987;DHT22;51532;52.108;9.360;2022-08-02T08:29:59;21.10;99.90
64987;DHT22;51532;52.108;9.360;2022-08-02T08:32:45;21.30;99.90
64987;DHT22;51532;52.108;9.360;2022-08-02T08:35:30;21.40;99.90
64987;DHT22;51532;52.108;9.360;2022-08-02T08:38:15;21.60;99.90
64987;DHT22;51532;52.108;9.360;2022-08-02T08:41:01;21.70;99.90
64987;DHT22;51532;52.108;9.360;2022-08-02T08:43:47;21.80;99.90
64987;DHT22;51532;52.108;9.360;2022-08-02T08:46:41;21.90;99.90
64987;DHT22;51532;52.108;9.360;2022-08-02T08:49:31;22.10;99.90
64987;DHT22;51532;52.108;9.360;2022-08-02T08:52:18;22.40;99.90
64987;DHT22;51532;52.108;9.360;2022-08-02T08:55:06;22.40;99.90
64987;DHT22;51532;52.108;9.360;2022-08-02T08:57:54;22.40;99.90
64987;DHT22;51532;52.108;9.360;2022-08-02T09:00:40;22.50;99.90
64987;DHT22;51532;52.108;9.360;2022-08-02T09:03:25;22.70;99.90
64987;DHT22;51532;52.108;9.360;2022-08-02T09:06:18;22.70;99.90
64987;DHT22;51532;52.108;9.360;2022-08-02T09:09:03;22.70;99.90
64987;DHT22;51532;52.108;9.360;2022-08-02T09:11:49;22.80;99.90
64987;DHT22;51532;52.108;9.360;2022-08-02T09:14:34;22.90;99.90
64987;DHT22;51532;52.108;9.360;2022-08-02T09:17:20;22.90;99.90
64987;DHT22;51532;52.108;9.360;2022-08-02T09:20:07;23.00;99.90
64987;DHT22;51532;52.108;9.360;2022-08-02T09:23:08;23.10;99.90
64987;DHT22;51532;52.108;9.360;2022-08-02T09:25:59;23.00;99.90
64987;DHT22;51532;52.108;9.360;2022-08-02T09:28:59;23.00;99.90
64987;DHT22;51532;52.108;9.360;2022-08-02T09:31:44;22.90;99.90
64987;DHT22;51532;52.108;9.360;2022-08-02T09:34:51;23.00;99.90
64987;DHT22;51532;52.108;9.360;2022-08-02T09:37:37;22.90;99.90
64987;DHT22;51532;52.108;9.360;2022-08-02T09:40:34;23.00;99.90
64987;DHT22;51532;52.108;9.360;2022-08-02T09:43:20;22.90;99.90
64987;DHT22;51532;52.108;9.360;2022-08-02T09:46:15;22.90;99.90
64987;DHT22;51532;52.108;9.360;2022-08-02T09:49:03;23.20;99.90
64987;DHT22;51532;52.108;9.360;2022-08-02T09:51:50;23.40;99.90
64987;DHT22;51532;52.108;9.360;2022-08-02T09:54:38;23.50;99.90
64987;DHT22;51532;52.108;9.360;2022-08-02T09:57:26;23.60;99.90
64987;DHT22;51532;52.108;9.360;2022-08-02T10:00:12;23.70;99.90
64987;DHT22;51532;52.108;9.360;2022-08-02T10:03:10;23.80;99.90
64987;DHT22;51532;52.108;9.360;2022-08-02T10:06:06;23.80;99.90
64987;DHT22;51532;52.108;9.360;2022-08-02T10:08:52;23.70;99.90
64987;DHT22;51532;52.108;9.360;2022-08-02T10:11:37;23.60;99.90
64987;DHT22;51532;52.108;9.360;2022-08-02T10:14:24;23.80;99.90
64987;DHT22;51532;52.108;9.360;2022-08-02T10:17:10;24.00;99.90
64987;DHT22;51532;52.108;9.360;2022-08-02T10:19:56;24.20;99.90
64987;DHT22;51532;52.108;9.360;2022-08-02T10:22:48;24.30;99.90
64987;DHT22;51532;52.108;9.360;2022-08-02T10:25:36;24.40;99.90
64987;DHT22;51532;52.108;9.360;2022-08-02T10:28:26;24.30;99.90
64987;DHT22;51532;52.108;9.360;2022-08-02T10:31:20;24.30;99.90
64987;DHT22;51532;52.108;9.360;2022-08-02T10:34:09;24.40;99.90
64987;DHT22;51532;52.108;9.360;2022-08-02T10:36:56;24.30;99.90
64987;DHT22;51532;52.108;9.360;2022-08-02T10:39:44;24.40;99.90
64987;DHT22;51532;52.108;9.360;2022-08-02T10:42:49;24.30;99.90
64987;DHT22;51532;52.108;9.360;2022-08-02T10:45:34;24.10;99.90
64987;DHT22;51532;52.108;9.360;2022-08-02T10:48:20;24.00;99.90
64987;DHT22;51532;52.108;9.360;2022-08-02T10:51:05;24.20;99.90
64987;DHT22;51532;52.108;9.360;2022-08-02T10:54:07;24.30;99.90
64987;DHT22;51532;52.108;9.360;2022-08-02T10:56:55;24.70;99.90
64987;DHT22;51532;52.108;9.360;2022-08-02T10:59:42;24.80;99.90
64987;DHT22;51532;52.108;9.360;2022-08-02T11:02:37;25.00;99.90
64987;DHT22;51532;52.108;9.360;2022-08-02T11:05:31;25.00;99.90
64987;DHT22;51532;52.108;9.360;2022-08-02T11:08:28;25.20;99.90
64987;DHT22;51532;52.108;9.360;2022-08-02T11:11:18;25.30;99.90
64987;DHT22;51532;52.108;9.360;2022-08-02T11:14:23;25.40;99.90
64987;DHT22;51532;52.108;9.360;2022-08-02T11:17:12;25.20;99.90
64987;DHT22;51532;52.108;9.360;2022-08-02T11:20:14;25.20;99.90
64987;DHT22;51532;52.108;9.360;2022-08-02T11:23:33;25.40;99.90
64987;DHT22;51532;52.108;9.360;2022-08-02T11:29:15;25.30;99.90
64987;DHT22;51532;52.108;9.360;2022-08-02T11:32:02;25.30;99.90
64987;DHT22;51532;52.108;9.360;2022-08-02T11:34:49;23.80;99.90
64987;DHT22;51532;52.108;9.360;2022-08-02T11:37:38;25.20;99.90
64987;DHT22;51532;52.108;9.360;2022-08-02T11:40:36;25.50;99.90
64987;DHT22;51532;52.108;9.360;2022-08-02T11:43:24;25.90;99.90
64987;DHT22;51532;52.108;9.360;2022-08-02T11:46:13;25.90;99.90
64987;DHT22;51532;52.108;9.360;2022-08-02T11:49:10;26.20;99.90
64987;DHT22;51532;52.108;9.360;2022-08-02T11:52:01;26.00;99.90
64987;DHT22;51532;52.108;9.360;2022-08-02T11:54:50;25.60;99.90
64987;DHT22;51532;52.108;9.360;2022-08-02T11:57:37;25.70;99.90
64987;DHT22;51532;52.108;9.360;2022-08-02T12:00:42;26.00;99.90
64987;DHT22;51532;52.108;9.360;2022-08-02T12:03:38;26.20;99.90
64987;DHT22;51532;52.108;9.360;2022-08-02T12:06:24;26.70;99.90
64987;DHT22;51532;52.108;9.360;2022-08-02T12:09:11;26.90;99.90
64987;DHT22;51532;52.108;9.360;2022-08-02T12:12:04;27.20;99.90
64987;DHT22;51532;52.108;9.360;2022-08-02T12:14:49;27.40;99.90
64987;DHT22;51532;52.108;9.360;2022-08-02T12:17:36;27.30;99.90
64987;DHT22;51532;52.108;9.360;2022-08-02T12:20:40;27.50;99.90
64987;DHT22;51532;52.108;9.360;2022-08-02T12:23:26;27.80;99.90
64987;DHT22;51532;52.108;9.360;2022-08-02T12:26:12;27.60;99.90
64987;DHT22;51532;52.108;9.360;2022-08-02T12:29:00;27.80;99.90
64987;DHT22;51532;52.108;9.360;2022-08-02T12:31:47;27.40;99.90
64987;DHT22;51532;52.108;9.360;2022-08-02T12:34:41;27.70;99.90
64987;DHT22;51532;52.108;9.360;2022-08-02T12:37:27;28.00;99.90
64987;DHT22;51532;52.108;9.360;2022-08-02T12:40:29;28.20;99.90
64987;DHT22;51532;52.108;9.360;2022-08-02T12:43:17;28.70;99.90
64987;DHT22;51532;52.108;9.360;2022-08-02T12:46:03;26.80;99.90
64987;DHT22;51532;52.108;9.360;2022-08-02T12:48:49;28.10;99.90
64987;DHT22;51532;52.108;9.360;2022-08-02T12:51:55;28.20;99.90
64987;DHT22;51532;52.108;9.360;2022-08-02T12:54:49;28.20;99.90
64987;DHT22;51532;52.108;9.360;2022-08-02T13:00:38;27.30;99.90
64987;DHT22;51532;52.108;9.360;2022-08-02T13:03:26;27.20;99.90
64987;DHT22;51532;52.108;9.360;2022-08-02T13:06:32;27.20;99.90
64987;DHT22;51532;52.108;9.360;2022-08-02T13:09:35;27.10;99.90
64987;DHT22;51532;52.108;9.360;2022-08-02T13:12:20;27.20;99.90
64987;DHT22;51532;52.108;9.360;2022-08-02T13:15:06;27.30;99.90
64987;DHT22;51532;52.108;9.360;2022-08-02T13:18:12;27.50;99.90
64987;DHT22;51532;52.108;9.360;2022-08-02T13:20:57;27.70;99.90
64987;DHT22;51532;52.108;9.360;2022-08-02T13:23:44;28.00;99.90
64987;DHT22;51532;52.108;9.360;2022-08-02T13:26:39;28.00;99.90
64987;DHT22;51532;52.108;9.360;2022-08-02T13:29:25;28.00;99.90
64987;DHT22;51532;52.108;9.360;2022-08-02T13:32:11;27.80;99.90
64987;DHT22;51532;52.108;9.360;2022-08-02T13:34:57;27.70;99.90
64987;DHT22;51532;52.108;9.360;2022-08-02T13:37:43;27.80;99.90
64987;DHT22;51532;52.108;9.360;2022-08-02T13:40:29;28.00;99.90
64987;DHT22;51532;52.108;9.360;2022-08-02T13:43:36;29.90;99.90
64987;DHT22;51532;52.108;9.360;2022-08-02T13:46:39;28.10;99.90
64987;DHT22;51532;52.108;9.360;2022-08-02T13:49:30;28.20;99.90
64987;DHT22;51532;52.108;9.360;2022-08-02T13:52:35;28.30;99.90
64987;DHT22;51532;52.108;9.360;2022-08-02T13:55:21;28.40;99.90
64987;DHT22;51532;52.108;9.360;2022-08-02T13:58:06;28.20;99.90
64987;DHT22;51532;52.108;9.360;2022-08-02T14:00:52;28.50;99.90
64987;DHT22;51532;52.108;9.360;2022-08-02T14:03:37;27.10;99.90
64987;DHT22;51532;52.108;9.360;2022-08-02T14:06:42;29.30;99.90
64987;DHT22;51532;52.108;9.360;2022-08-02T14:09:28;29.50;99.90
64987;DHT22;51532;52.108;9.360;2022-08-02T14:12:17;29.40;99.90
64987;DHT22;51532;52.108;9.360;2022-08-02T14:15:03;29.00;99.90
64987;DHT22;51532;52.108;9.360;2022-08-02T14:17:48;29.70;99.90
64987;DHT22;51532;52.108;9.360;2022-08-02T14:20:37;30.70;99.90
64987;DHT22;51532;52.108;9.360;2022-08-02T14:23:23;30.70;99.90
64987;DHT22;51532;52.108;9.360;2022-08-02T14:26:28;32.50;99.90
64987;DHT22;51532;52.108;9.360;2022-08-02T14:29:14;33.20;99.90
64987;DHT22;51532;52.108;9.360;2022-08-02T14:32:01;34.20;99.90
64987;DHT22;51532;52.108;9.360;2022-08-02T14:34:46;34.40;97.40
64987;DHT22;51532;52.108;9.360;2022-08-02T14:37:33;34.80;96.40
64987;DHT22;51532;52.108;9.360;2022-08-02T14:40:18;34.10;96.10
64987;DHT22;51532;52.108;9.360;2022-08-02T14:43:15;33.00;96.80
64987;DHT22;51532;52.108;9.360;2022-08-02T14:46:19;33.70;95.70
64987;DHT22;51532;52.108;9.360;2022-08-02T14:49:07;34.20;95.20
64987;DHT22;51532;52.108;9.360;2022-08-02T14:51:53;35.00;94.30
64987;DHT22;51532;52.108;9.360;2022-08-02T14:54:39;35.70;93.70
64987;DHT22;51532;52.108;9.360;2022-08-02T14:57:27;37.10;92.00
64987;DHT22;51532;52.108;9.360;2022-08-02T15:00:13;38.40;90.40
64987;DHT22;51532;52.108;9.360;2022-08-02T15:02:58;37.50;87.00
64987;DHT22;51532;52.108;9.360;2022-08-02T15:05:44;37.10;87.00
64987;DHT22;51532;52.108;9.360;2022-08-02T15:08:29;37.40;86.20
64987;DHT22;51532;52.108;9.360;2022-08-02T15:11:15;37.10;85.70
64987;DHT22;51532;52.108;9.360;2022-08-02T15:14:00;37.60;86.30
64987;DHT22;51532;52.108;9.360;2022-08-02T15:16:46;37.30;83.90
64987;DHT22;51532;52.108;9.360;2022-08-02T15:19:42;37.20;82.50
64987;DHT22;51532;52.108;9.360;2022-08-02T15:22:45;36.80;82.80
64987;DHT22;51532;52.108;9.360;2022-08-02T15:25:34;37.40;81.80
64987;DHT22;51532;52.108;9.360;2022-08-02T15:28:25;36.20;82.90
64987;DHT22;51532;52.108;9.360;2022-08-02T15:31:13;36.50;82.90
64987;DHT22;51532;52.108;9.360;2022-08-02T15:34:16;37.70;80.10
64987;DHT22;51532;52.108;9.360;2022-08-02T15:37:03;38.40;77.70
64987;DHT22;51532;52.108;9.360;2022-08-02T15:39:49;38.90;76.50
64987;DHT22;51532;52.108;9.360;2022-08-02T15:42:34;37.60;75.30
64987;DHT22;51532;52.108;9.360;2022-08-02T15:45:19;36.40;77.50
64987;DHT22;51532;52.108;9.360;2022-08-02T15:48:05;36.60;75.90
64987;DHT22;51532;52.108;9.360;2022-08-02T15:50:51;35.90;77.50
64987;DHT22;51532;52.108;9.360;2022-08-02T15:53:37;36.50;78.10
64987;DHT22;51532;52.108;9.360;2022-08-02T15:56:22;36.80;76.10
64987;DHT22;51532;52.108;9.360;2022-08-02T15:59:08;36.50;76.60
64987;DHT22;51532;52.108;9.360;2022-08-02T16:01:54;36.50;75.90
64987;DHT22;51532;52.108;9.360;2022-08-02T16:04:40;35.00;77.20
64987;DHT22;51532;52.108;9.360;2022-08-02T16:07:26;35.70;76.80
64987;DHT22;51532;52.108;9.360;2022-08-02T16:10:12;36.50;75.50
64987;DHT22;51532;52.108;9.360;2022-08-02T16:12:57;36.70;73.90
64987;DHT22;51532;52.108;9.360;2022-08-02T16:16:03;36.20;75.10
64987;DHT22;51532;52.108;9.360;2022-08-02T16:18:49;36.30;74.80
64987;DHT22;51532;52.108;9.360;2022-08-02T16:21:34;35.10;74.50
64987;DHT22;51532;52.108;9.360;2022-08-02T16:24:19;35.20;74.60
64987;DHT22;51532;52.108;9.360;2022-08-02T16:27:06;34.20;76.50
64987;DHT22;51532;52.108;9.360;2022-08-02T16:29:52;34.70;76.40
64987;DHT22;51532;52.108;9.360;2022-08-02T16:32:38;36.20;76.50
64987;DHT22;51532;52.108;9.360;2022-08-02T16:35:24;37.30;74.30
64987;DHT22;51532;52.108;9.360;2022-08-02T16:38:10;36.50;74.60
64987;DHT22;51532;52.108;9.360;2022-08-02T16:40:55;36.80;73.80
64987;DHT22;51532;52.108;9.360;2022-08-02T16:43:46;36.40;72.90
64987;DHT22;51532;52.108;9.360;2022-08-02T16:46:31;36.20;74.40
64987;DHT22;51532;52.108;9.360;2022-08-02T16:49:16;35.60;73.50
64987;DHT22;51532;52.108;9.360;2022-08-02T16:52:22;34.70;75.10
64987;DHT22;51532;52.108;9.360;2022-08-02T16:55:08;33.40;77.30
64987;DHT22;51532;52.108;9.360;2022-08-02T16:57:56;32.20;79.80
64987;DHT22;51532;52.108;9.360;2022-08-02T17:00:42;31.50;81.70
64987;DHT22;51532;52.108;9.360;2022-08-02T17:03:32;31.20;82.20
64987;DHT22;51532;52.108;9.360;2022-08-02T17:06:37;30.70;83.50
64987;DHT22;51532;52.108;9.360;2022-08-02T17:09:31;30.50;85.10
64987;DHT22;51532;52.108;9.360;2022-08-02T17:12:37;30.30;85.40
64987;DHT22;51532;52.108;9.360;2022-08-02T17:15:23;29.90;86.50
64987;DHT22;51532;52.108;9.360;2022-08-02T17:18:29;29.50;87.30
64987;DHT22;51532;52.108;9.360;2022-08-02T17:21:14;29.40;88.30
64987;DHT22;51532;52.108;9.360;2022-08-02T17:24:03;29.10;89.10
64987;DHT22;51532;52.108;9.360;2022-08-02T17:26:52;28.90;90.00
64987;DHT22;51532;52.108;9.360;2022-08-02T17:29:38;28.70;90.20
64987;DHT22;51532;52.108;9.360;2022-08-02T17:32:26;28.50;90.80
64987;DHT22;51532;52.108;9.360;2022-08-02T17:35:13;28.50;91.00
64987;DHT22;51532;52.108;9.360;2022-08-02T17:38:00;28.60;91.00
64987;DHT22;51532;52.108;9.360;2022-08-02T17:40:49;28.60;91.50
64987;DHT22;51532;52.108;9.360;2022-08-02T17:43:34;28.50;91.00
64987;DHT22;51532;52.108;9.360;2022-08-02T17:46:25;28.30;91.30
64987;DHT22;51532;52.108;9.360;2022-08-02T17:49:12;28.30;91.60
64987;DHT22;51532;52.108;9.360;2022-08-02T17:52:01;28.20;91.80
64987;DHT22;51532;52.108;9.360;2022-08-02T17:55:07;28.10;92.00
64987;DHT22;51532;52.108;9.360;2022-08-02T17:57:55;28.10;92.20
64987;DHT22;51532;52.108;9.360;2022-08-02T18:00:43;28.10;92.40
64987;DHT22;51532;52.108;9.360;2022-08-02T18:03:29;28.00;92.70
64987;DHT22;51532;52.108;9.360;2022-08-02T18:06:15;27.80;92.80
64987;DHT22;51532;52.108;9.360;2022-08-02T18:09:03;27.70;93.30